sensor_id;sensor_type;location;lat;lon;timestamp;P1;durP1;ratioP1;P2;durP2;ratioP2
15261;SDS011;7733;51.554;13.590;2023-03-24T00:00:18;1.60;;;1.50;;
15261;SDS011;7733;51.554;13.590;2023-03-24T00:02:48;1.77;;;1.73;;
15261;SDS011;7733;51.554;13.590;2023-03-24T00:05:16;1.40;;;1.40;;
15261;SDS011;7733;51.554;13.590;2023-03-24T00:07:45;1.83;;;1.67;;
15261;SDS011;7733;51.554;13.590;2023-03-24T00:10:13;1.53;;;1.47;;
15261;SDS011;7733;51.554;13.590;2023-03-24T00:12:43;1.60;;;1.60;;
15261;SDS011;7733;51.554;13.590;2023-03-24T00:15:12;1.90;;;1.80;;
15261;SDS011;7733;51.554;13.590;2023-03-24T00:17:41;1.70;;;1.60;;
15261;SDS011;7733;51.554;13.590;2023-03-24T00:20:08;1.63;;;1.53;;
15261;SDS011;7733;51.554;13.590;2023-03-24T00:22:43;1.80;;;1.70;;
15261;SDS011;7733;51.554;13.590;2023-03-24T00:25:22;2.10;;;1.50;;
15261;SDS011;7733;51.554;13.590;2023-03-24T00:28:00;1.80;;;1.70;;
15261;SDS011;7733;51.554;13.590;2023-03-24T00:30:29;1.57;;;1.47;;
15261;SDS011;7733;51.554;13.590;2023-03-24T00:32:55;1.90;;;1.80;;
15261;SDS011;7733;51.554;13.590;2023-03-24T00:35:22;1.90;;;1.80;;
15261;SDS011;7733;51.554;13.590;2023-03-24T00:37:48;1.80;;;1.70;;
15261;SDS011;7733;51.554;13.590;2023-03-24T00:40:16;1.47;;;1.47;;
15261;SDS011;7733;51.554;13.590;2023-03-24T00:42:45;1.70;;;1.70;;
15261;SDS011;7733;51.554;13.590;2023-03-24T00:45:14;1.83;;;1.73;;
15261;SDS011;7733;51.554;13.590;2023-03-24T00:47:47;1.60;;;1.60;;
15261;SDS011;7733;51.554;13.590;2023-03-24T00:50:18;1.77;;;1.77;;
15261;SDS011;7733;51.554;13.590;2023-03-24T00:52:50;2.30;;;1.80;;
15261;SDS011;7733;51.554;13.590;2023-03-24T00:55:17;1.80;;;1.70;;
15261;SDS011;7733;51.554;13.590;2023-03-24T00:57:45;3.00;;;1.80;;
15261;SDS011;7733;51.554;13.590;2023-03-24T01:00:16;1.90;;;1.80;;
15261;SDS011;7733;51.554;13.590;2023-03-24T01:02:48;1.77;;;1.67;;
15261;SDS011;7733;51.554;13.590;2023-03-24T01:05:18;2.00;;;1.83;;
15261;SDS011;7733;51.554;13.590;2023-03-24T01:07:51;2.20;;;2.10;;
15261;SDS011;7733;51.554;13.590;2023-03-24T01:10:21;2.20;;;2.10;;
15261;SDS011;7733;51.554;13.590;2023-03-24T01:12:50;2.30;;;2.10;;
15261;SDS011;7733;51.554;13.590;2023-03-24T01:15:20;2.23;;;2.13;;
15261;SDS011;7733;51.554;13.590;2023-03-24T01:17:50;2.73;;;1.93;;
15261;SDS011;7733;51.554;13.590;2023-03-24T01:20:17;2.20;;;2.10;;
15261;SDS011;7733;51.554;13.590;2023-03-24T01:22:44;2.20;;;2.00;;
15261;SDS011;7733;51.554;13.590;2023-03-24T01:25:17;2.17;;;1.97;;
15261;SDS011;7733;51.554;13.590;2023-03-24T01:27:47;2.20;;;2.00;;
15261;SDS011;7733;51.554;13.590;2023-03-24T01:30:15;2.10;;;2.00;;
15261;SDS011;7733;51.554;13.590;2023-03-24T01:32:44;2.50;;;2.30;;
15261;SDS011;7733;51.554;13.590;2023-03-24T01:35:10;2.00;;;1.90;;
15261;SDS011;7733;51.554;13.590;2023-03-24T01:37:37;2.23;;;2.10;;
15261;SDS011;7733;51.554;13.590;2023-03-24T01:40:05;2.93;;;2.20;;
15261;SDS011;7733;51.554;13.590;2023-03-24T01:42:35;2.10;;;1.97;;
15261;SDS011;7733;51.554;13.590;2023-03-24T01:50:44;2.00;;;2.00;;
15261;SDS011;7733;51.554;13.590;2023-03-24T01:53:26;2.30;;;2.20;;
15261;SDS011;7733;51.554;13.590;2023-03-24T01:55:56;2.10;;;2.00;;
15261;SDS011;7733;51.554;13.590;2023-03-24T01:58:24;2.37;;;2.27;;
15261;SDS011;7733;51.554;13.590;2023-03-24T02:00:54;2.10;;;2.00;;
15261;SDS011;7733;51.554;13.590;2023-03-24T02:03:22;2.57;;;2.37;;
15261;SDS011;7733;51.554;13.590;2023-03-24T02:05:54;2.20;;;2.10;;
15261;SDS011;7733;51.554;13.590;2023-03-24T02:08:26;2.33;;;2.13;;
15261;SDS011;7733;51.554;13.590;2023-03-24T02:11:00;2.10;;;2.00;;
15261;SDS011;7733;51.554;13.590;2023-03-24T02:13:26;2.03;;;1.93;;
15261;SDS011;7733;51.554;13.590;2023-03-24T02:18:41;2.17;;;2.07;;
15261;SDS011;7733;51.554;13.590;2023-03-24T02:52:59;2.40;;;2.20;;
15261;SDS011;7733;51.554;13.590;2023-03-24T02:55:39;2.20;;;2.10;;
15261;SDS011;7733;51.554;13.590;2023-03-24T03:01:11;2.70;;;2.60;;
15261;SDS011;7733;51.554;13.590;2023-03-24T03:03:55;2.53;;;2.33;;
15261;SDS011;7733;51.554;13.590;2023-03-24T03:06:31;2.33;;;2.23;;
15261;SDS011;7733;51.554;13.590;2023-03-24T03:09:05;2.47;;;2.37;;
15261;SDS011;7733;51.554;13.590;2023-03-24T03:11:37;2.23;;;2.13;;
15261;SDS011;7733;51.554;13.590;2023-03-24T03:14:13;2.47;;;2.37;;
15261;SDS011;7733;51.554;13.590;2023-03-24T03:16:50;3.77;;;2.67;;
15261;SDS011;7733;51.554;13.590;2023-03-24T03:19:30;2.67;;;2.57;;
15261;SDS011;7733;51.554;13.590;2023-03-24T03:22:03;2.70;;;2.60;;
15261;SDS011;7733;51.554;13.590;2023-03-24T03:24:42;2.67;;;2.57;;
15261;SDS011;7733;51.554;13.590;2023-03-24T03:27:18;2.80;;;2.60;;
15261;SDS011;7733;51.554;13.590;2023-03-24T03:30:02;2.60;;;2.50;;
15261;SDS011;7733;51.554;13.590;2023-03-24T03:32:49;3.13;;;2.87;;
15261;SDS011;7733;51.554;13.590;2023-03-24T03:35:37;2.90;;;2.70;;
15261;SDS011;7733;51.554;13.590;2023-03-24T03:38:22;2.97;;;2.77;;
15261;SDS011;7733;51.554;13.590;2023-03-24T03:41:17;2.77;;;2.63;;
15261;SDS011;7733;51.554;13.590;2023-03-24T03:43:44;3.27;;;2.97;;
15261;SDS011;7733;51.554;13.590;2023-03-24T03:46:13;3.40;;;3.20;;
15261;SDS011;7733;51.554;13.590;2023-03-24T03:48:42;3.10;;;3.00;;
15261;SDS011;7733;51.554;13.590;2023-03-24T03:51:09;3.13;;;2.90;;
15261;SDS011;7733;51.554;13.590;2023-03-24T03:53:42;3.30;;;3.00;;
15261;SDS011;7733;51.554;13.590;2023-03-24T03:56:18;3.37;;;3.17;;
15261;SDS011;7733;51.554;13.590;2023-03-24T03:58:50;3.10;;;2.90;;
15261;SDS011;7733;51.554;13.590;2023-03-24T04:01:18;3.70;;;3.30;;
15261;SDS011;7733;51.554;13.590;2023-03-24T04:26:29;3.50;;;3.30;;
15261;SDS011;7733;51.554;13.590;2023-03-24T04:32:21;3.47;;;3.30;;
15261;SDS011;7733;51.554;13.590;2023-03-24T04:34:58;3.57;;;3.37;;
15261;SDS011;7733;51.554;13.590;2023-03-24T04:37:31;4.10;;;3.80;;
15261;SDS011;7733;51.554;13.590;2023-03-24T04:40:03;3.43;;;3.33;;
15261;SDS011;7733;51.554;13.590;2023-03-24T04:42:45;3.53;;;3.23;;
15261;SDS011;7733;51.554;13.590;2023-03-24T04:45:17;3.70;;;3.50;;
15261;SDS011;7733;51.554;13.590;2023-03-24T04:47:49;3.17;;;3.07;;
15261;SDS011;7733;51.554;13.590;2023-03-24T04:50:31;4.07;;;3.70;;
15261;SDS011;7733;51.554;13.590;2023-03-24T04:53:05;4.30;;;3.90;;
15261;SDS011;7733;51.554;13.590;2023-03-24T04:58:27;3.60;;;3.37;;
15261;SDS011;7733;51.554;13.590;2023-03-24T05:00:53;3.43;;;3.27;;
15261;SDS011;7733;51.554;13.590;2023-03-24T05:03:20;3.53;;;3.30;;
15261;SDS011;7733;51.554;13.590;2023-03-24T05:05:47;3.30;;;3.20;;
15261;SDS011;7733;51.554;13.590;2023-03-24T05:08:15;3.20;;;3.10;;
15261;SDS011;7733;51.554;13.590;2023-03-24T05:10:43;3.43;;;3.23;;
15261;SDS011;7733;51.554;13.590;2023-03-24T05:13:09;3.40;;;3.30;;
15261;SDS011;7733;51.554;13.590;2023-03-24T05:15:36;3.37;;;3.17;;
15261;SDS011;7733;51.554;13.590;2023-03-24T05:18:03;3.27;;;3.07;;
15261;SDS011;7733;51.554;13.590;2023-03-24T05:20:30;3.50;;;3.30;;
15261;SDS011;7733;51.554;13.590;2023-03-24T05:22:56;3.43;;;3.23;;
15261;SDS011;7733;51.554;13.590;2023-03-24T05:25:22;3.07;;;2.97;;
15261;SDS011;7733;51.554;13.590;2023-03-24T05:27:48;5.30;;;3.30;;
15261;SDS011;7733;51.554;13.590;2023-03-24T05:30:14;3.40;;;3.20;;
15261;SDS011;7733;51.554;13.590;2023-03-24T05:32:40;3.10;;;3.00;;
15261;SDS011;7733;51.554;13.590;2023-03-24T05:35:06;3.10;;;3.00;;
15261;SDS011;7733;51.554;13.590;2023-03-24T05:37:32;3.00;;;2.90;;
15261;SDS011;7733;51.554;13.590;2023-03-24T05:39:58;3.23;;;2.93;;
15261;SDS011;7733;51.554;13.590;2023-03-24T05:42:24;3.30;;;3.00;;
15261;SDS011;7733;51.554;13.590;2023-03-24T05:44:50;2.73;;;2.63;;
15261;SDS011;7733;51.554;13.590;2023-03-24T05:47:16;2.77;;;2.63;;
15261;SDS011;7733;51.554;13.590;2023-03-24T05:49:44;2.73;;;2.63;;
15261;SDS011;7733;51.554;13.590;2023-03-24T05:52:11;2.70;;;2.47;;
15261;SDS011;7733;51.554;13.590;2023-03-24T05:54:40;2.83;;;2.73;;
15261;SDS011;7733;51.554;13.590;2023-03-24T05:57:07;2.80;;;2.70;;
15261;SDS011;7733;51.554;13.590;2023-03-24T05:59:40;2.67;;;2.57;;
15261;SDS011;7733;51.554;13.590;2023-03-24T06:02:06;2.80;;;2.70;;
15261;SDS011;7733;51.554;13.590;2023-03-24T06:04:33;3.00;;;2.80;;
15261;SDS011;7733;51.554;13.590;2023-03-24T06:06:59;3.30;;;2.70;;
15261;SDS011;7733;51.554;13.590;2023-03-24T06:09:27;2.77;;;2.67;;
15261;SDS011;7733;51.554;13.590;2023-03-24T06:11:59;2.43;;;2.33;;
15261;SDS011;7733;51.554;13.590;2023-03-24T06:14:27;2.67;;;2.57;;
15261;SDS011;7733;51.554;13.590;2023-03-24T06:16:53;3.30;;;3.00;;
15261;SDS011;7733;51.554;13.590;2023-03-24T06:19:23;3.00;;;2.90;;
15261;SDS011;7733;51.554;13.590;2023-03-24T06:21:51;2.77;;;2.67;;
15261;SDS011;7733;51.554;13.590;2023-03-24T06:24:17;2.70;;;2.60;;
15261;SDS011;7733;51.554;13.590;2023-03-24T06:26:44;2.50;;;2.40;;
15261;SDS011;7733;51.554;13.590;2023-03-24T06:29:14;2.70;;;2.60;;
15261;SDS011;7733;51.554;13.590;2023-03-24T06:31:44;2.90;;;2.70;;
15261;SDS011;7733;51.554;13.590;2023-03-24T06:34:12;2.70;;;2.50;;
15261;SDS011;7733;51.554;13.590;2023-03-24T06:36:38;2.40;;;2.30;;
15261;SDS011;7733;51.554;13.590;2023-03-24T06:39:04;2.60;;;2.40;;
15261;SDS011;7733;51.554;13.590;2023-03-24T06:41:30;2.40;;;2.30;;
15261;SDS011;7733;51.554;13.590;2023-03-24T06:43:56;2.70;;;2.60;;
15261;SDS011;7733;51.554;13.590;2023-03-24T06:46:23;2.63;;;2.43;;
15261;SDS011;7733;51.554;13.590;2023-03-24T06:48:49;2.40;;;2.30;;
15261;SDS011;7733;51.554;13.590;2023-03-24T06:51:15;2.40;;;2.30;;
15261;SDS011;7733;51.554;13.590;2023-03-24T06:53:41;2.40;;;2.30;;
15261;SDS011;7733;51.554;13.590;2023-03-24T06:56:09;2.77;;;2.60;;
15261;SDS011;7733;51.554;13.590;2023-03-24T06:58:40;2.53;;;2.43;;
15261;SDS011;7733;51.554;13.590;2023-03-24T07:01:07;2.77;;;2.57;;
15261;SDS011;7733;51.554;13.590;2023-03-24T07:03:33;2.93;;;2.80;;
15261;SDS011;7733;51.554;13.590;2023-03-24T07:05:59;2.67;;;2.57;;
15261;SDS011;7733;51.554;13.590;2023-03-24T07:08:25;3.23;;;2.87;;
15261;SDS011;7733;51.554;13.590;2023-03-24T07:10:51;3.10;;;2.90;;
15261;SDS011;7733;51.554;13.590;2023-03-24T07:13:17;2.90;;;2.80;;
15261;SDS011;7733;51.554;13.590;2023-03-24T07:15:43;5.83;;;3.03;;
15261;SDS011;7733;51.554;13.590;2023-03-24T07:18:09;2.60;;;2.50;;
15261;SDS011;7733;51.554;13.590;2023-03-24T07:20:35;2.47;;;2.37;;
15261;SDS011;7733;51.554;13.590;2023-03-24T07:23:00;3.03;;;2.60;;
15261;SDS011;7733;51.554;13.590;2023-03-24T07:25:26;2.67;;;2.57;;
15261;SDS011;7733;51.554;13.590;2023-03-24T07:27:53;2.53;;;2.43;;
15261;SDS011;7733;51.554;13.590;2023-03-24T07:30:20;2.90;;;2.70;;
15261;SDS011;7733;51.554;13.590;2023-03-24T07:32:47;2.87;;;2.57;;
15261;SDS011;7733;51.554;13.590;2023-03-24T07:35:13;2.87;;;2.67;;
15261;SDS011;7733;51.554;13.590;2023-03-24T07:37:41;2.60;;;2.50;;
15261;SDS011;7733;51.554;13.590;2023-03-24T07:40:08;2.77;;;2.57;;
15261;SDS011;7733;51.554;13.590;2023-03-24T07:42:39;2.70;;;2.50;;
15261;SDS011;7733;51.554;13.590;2023-03-24T07:45:07;2.90;;;2.80;;
15261;SDS011;7733;51.554;13.590;2023-03-24T07:47:37;2.90;;;2.47;;
15261;SDS011;7733;51.554;13.590;2023-03-24T07:50:06;2.73;;;2.57;;
15261;SDS011;7733;51.554;13.590;2023-03-24T07:52:36;2.13;;;2.03;;
15261;SDS011;7733;51.554;13.590;2023-03-24T07:55:04;2.50;;;2.30;;
15261;SDS011;7733;51.554;13.590;2023-03-24T07:57:36;2.70;;;2.57;;
15261;SDS011;7733;51.554;13.590;2023-03-24T08:00:06;2.33;;;2.23;;
15261;SDS011;7733;51.554;13.590;2023-03-24T08:02:45;2.53;;;2.43;;
15261;SDS011;7733;51.554;13.590;2023-03-24T08:05:14;2.60;;;2.50;;
15261;SDS011;7733;51.554;13.590;2023-03-24T08:07:41;2.70;;;2.50;;
15261;SDS011;7733;51.554;13.590;2023-03-24T08:10:09;2.63;;;2.53;;
15261;SDS011;7733;51.554;13.590;2023-03-24T08:12:39;2.67;;;2.43;;
15261;SDS011;7733;51.554;13.590;2023-03-24T08:15:06;2.43;;;2.33;;
15261;SDS011;7733;51.554;13.590;2023-03-24T08:17:33;2.63;;;2.53;;
15261;SDS011;7733;51.554;13.590;2023-03-24T08:20:00;2.30;;;2.20;;
15261;SDS011;7733;51.554;13.590;2023-03-24T08:22:32;2.40;;;2.30;;
15261;SDS011;7733;51.554;13.590;2023-03-24T08:24:58;2.50;;;2.30;;
15261;SDS011;7733;51.554;13.590;2023-03-24T08:27:24;2.50;;;2.30;;
15261;SDS011;7733;51.554;13.590;2023-03-24T08:29:49;2.50;;;2.30;;
15261;SDS011;7733;51.554;13.590;2023-03-24T08:32:15;2.73;;;2.63;;
15261;SDS011;7733;51.554;13.590;2023-03-24T08:34:41;2.47;;;2.37;;
15261;SDS011;7733;51.554;13.590;2023-03-24T08:37:07;2.50;;;2.40;;
15261;SDS011;7733;51.554;13.590;2023-03-24T08:39:33;2.50;;;2.40;;
15261;SDS011;7733;51.554;13.590;2023-03-24T08:41:59;2.50;;;2.40;;
15261;SDS011;7733;51.554;13.590;2023-03-24T08:44:26;2.73;;;2.53;;
15261;SDS011;7733;51.554;13.590;2023-03-24T08:46:52;2.60;;;2.40;;
15261;SDS011;7733;51.554;13.590;2023-03-24T08:49:17;2.93;;;2.73;;
15261;SDS011;7733;51.554;13.590;2023-03-24T08:51:43;2.80;;;2.70;;
15261;SDS011;7733;51.554;13.590;2023-03-24T08:54:10;2.57;;;2.47;;
15261;SDS011;7733;51.554;13.590;2023-03-24T08:56:37;2.43;;;2.33;;
15261;SDS011;7733;51.554;13.590;2023-03-24T08:59:03;2.60;;;2.40;;
15261;SDS011;7733;51.554;13.590;2023-03-24T09:01:30;2.53;;;2.20;;
15261;SDS011;7733;51.554;13.590;2023-03-24T09:03:58;2.30;;;2.20;;
15261;SDS011;7733;51.554;13.590;2023-03-24T09:06:24;2.30;;;2.20;;
15261;SDS011;7733;51.554;13.590;2023-03-24T09:08:51;2.87;;;2.10;;
15261;SDS011;7733;51.554;13.590;2023-03-24T09:11:19;2.37;;;2.27;;
15261;SDS011;7733;51.554;13.590;2023-03-24T09:13:46;2.30;;;2.20;;
15261;SDS011;7733;51.554;13.590;2023-03-24T09:16:13;1.93;;;1.87;;
15261;SDS011;7733;51.554;13.590;2023-03-24T09:18:39;2.40;;;2.07;;
15261;SDS011;7733;51.554;13.590;2023-03-24T09:21:06;2.00;;;1.90;;
15261;SDS011;7733;51.554;13.590;2023-03-24T09:23:32;2.03;;;1.93;;
15261;SDS011;7733;51.554;13.590;2023-03-24T09:25:59;2.33;;;2.00;;
15261;SDS011;7733;51.554;13.590;2023-03-24T09:28:26;1.63;;;1.60;;
15261;SDS011;7733;51.554;13.590;2023-03-24T09:30:56;1.57;;;1.47;;
15261;SDS011;7733;51.554;13.590;2023-03-24T09:33:27;1.37;;;1.30;;
15261;SDS011;7733;51.554;13.590;2023-03-24T09:35:58;1.67;;;1.37;;
15261;SDS011;7733;51.554;13.590;2023-03-24T09:38:26;1.47;;;1.47;;
15261;SDS011;7733;51.554;13.590;2023-03-24T09:40:54;1.30;;;1.20;;
15261;SDS011;7733;51.554;13.590;2023-03-24T09:43:38;1.17;;;1.10;;
15261;SDS011;7733;51.554;13.590;2023-03-24T09:46:22;1.30;;;1.20;;
15261;SDS011;7733;51.554;13.590;2023-03-24T09:48:57;1.20;;;1.20;;
15261;SDS011;7733;51.554;13.590;2023-03-24T09:51:24;1.10;;;1.10;;
15261;SDS011;7733;51.554;13.590;2023-03-24T09:56:50;1.10;;;1.10;;
15261;SDS011;7733;51.554;13.590;2023-03-24T09:59:19;1.00;;;1.00;;
15261;SDS011;7733;51.554;13.590;2023-03-24T10:01:48;1.30;;;1.30;;
15261;SDS011;7733;51.554;13.590;2023-03-24T10:04:18;1.13;;;1.13;;
15261;SDS011;7733;51.554;13.590;2023-03-24T10:06:50;1.03;;;1.03;;
15261;SDS011;7733;51.554;13.590;2023-03-24T10:09:26;1.43;;;1.07;;
15261;SDS011;7733;51.554;13.590;2023-03-24T10:14:51;1.50;;;1.47;;
15261;SDS011;7733;51.554;13.590;2023-03-24T10:31:51;1.10;;;1.10;;
15261;SDS011;7733;51.554;13.590;2023-03-24T10:34:25;1.20;;;1.20;;
15261;SDS011;7733;51.554;13.590;2023-03-24T10:36:57;1.50;;;1.40;;
15261;SDS011;7733;51.554;13.590;2023-03-24T10:39:27;1.30;;;1.30;;
15261;SDS011;7733;51.554;13.590;2023-03-24T10:41:57;1.20;;;1.20;;
15261;SDS011;7733;51.554;13.590;2023-03-24T10:44:24;1.50;;;1.40;;
15261;SDS011;7733;51.554;13.590;2023-03-24T10:46:53;1.70;;;1.30;;
15261;SDS011;7733;51.554;13.590;2023-03-24T10:49:23;1.20;;;1.20;;
15261;SDS011;7733;51.554;13.590;2023-03-24T10:51:53;1.20;;;1.20;;
15261;SDS011;7733;51.554;13.590;2023-03-24T10:54:26;1.57;;;1.47;;
15261;SDS011;7733;51.554;13.590;2023-03-24T11:02:28;1.57;;;1.50;;
15261;SDS011;7733;51.554;13.590;2023-03-24T11:04:56;1.50;;;1.40;;
15261;SDS011;7733;51.554;13.590;2023-03-24T11:07:56;1.27;;;1.27;;
15261;SDS011;7733;51.554;13.590;2023-03-24T11:10:43;1.27;;;1.27;;
15261;SDS011;7733;51.554;13.590;2023-03-24T11:13:16;1.20;;;1.20;;
15261;SDS011;7733;51.554;13.590;2023-03-24T11:21:29;1.50;;;1.50;;
15261;SDS011;7733;51.554;13.590;2023-03-24T11:24:07;1.40;;;1.30;;
15261;SDS011;7733;51.554;13.590;2023-03-24T11:26:38;1.50;;;1.50;;
15261;SDS011;7733;51.554;13.590;2023-03-24T11:29:17;1.50;;;1.40;;
15261;SDS011;7733;51.554;13.590;2023-03-24T11:32:01;1.40;;;1.40;;
15261;SDS011;7733;51.554;13.590;2023-03-24T11:34:36;1.63;;;1.60;;
15261;SDS011;7733;51.554;13.590;2023-03-24T11:37:18;1.20;;;1.20;;
15261;SDS011;7733;51.554;13.590;2023-03-24T11:42:44;1.10;;;1.10;;
15261;SDS011;7733;51.554;13.590;2023-03-24T11:48:25;1.60;;;1.60;;
15261;SDS011;7733;51.554;13.590;2023-03-24T11:51:03;1.30;;;1.30;;
15261;SDS011;7733;51.554;13.590;2023-03-24T11:53:41;1.40;;;1.40;;
15261;SDS011;7733;51.554;13.590;2023-03-24T11:58:56;1.40;;;1.40;;
15261;SDS011;7733;51.554;13.590;2023-03-24T12:01:30;1.30;;;1.30;;
15261;SDS011;7733;51.554;13.590;2023-03-24T12:27:25;2.13;;;2.03;;
15261;SDS011;7733;51.554;13.590;2023-03-24T12:39:32;1.03;;;0.60;;
15261;SDS011;7733;51.554;13.590;2023-03-24T12:42:09;2.43;;;0.70;;
15261;SDS011;7733;51.554;13.590;2023-03-24T12:44:56;0.70;;;0.70;;
15261;SDS011;7733;51.554;13.590;2023-03-24T12:56:07;0.90;;;0.90;;
15261;SDS011;7733;51.554;13.590;2023-03-24T13:01:37;0.70;;;0.70;;
15261;SDS011;7733;51.554;13.590;2023-03-24T13:09:42;1.27;;;0.80;;
15261;SDS011;7733;51.554;13.590;2023-03-24T13:12:35;0.97;;;0.97;;
15261;SDS011;7733;51.554;13.590;2023-03-24T13:15:23;0.90;;;0.90;;
15261;SDS011;7733;51.554;13.590;2023-03-24T13:26:25;1.10;;;1.00;;
15261;SDS011;7733;51.554;13.590;2023-03-24T13:29:31;2.00;;;1.40;;
15261;SDS011;7733;51.554;13.590;2023-03-24T13:32:17;1.30;;;1.20;;
15261;SDS011;7733;51.554;13.590;2023-03-24T13:38:07;2.73;;;1.40;;
15261;SDS011;7733;51.554;13.590;2023-03-24T13:40:51;1.00;;;1.00;;
15261;SDS011;7733;51.554;13.590;2023-03-24T13:43:23;0.93;;;0.93;;
15261;SDS011;7733;51.554;13.590;2023-03-24T13:46:00;1.37;;;0.97;;
15261;SDS011;7733;51.554;13.590;2023-03-24T13:51:16;1.33;;;1.33;;
15261;SDS011;7733;51.554;13.590;2023-03-24T13:56:30;0.90;;;0.90;;
15261;SDS011;7733;51.554;13.590;2023-03-24T13:59:07;0.97;;;0.90;;
15261;SDS011;7733;51.554;13.590;2023-03-24T14:02:08;0.83;;;0.83;;
15261;SDS011;7733;51.554;13.590;2023-03-24T14:05:10;1.27;;;1.10;;
15261;SDS011;7733;51.554;13.590;2023-03-24T14:10:40;1.17;;;1.07;;
15261;SDS011;7733;51.554;13.590;2023-03-24T14:25:59;1.67;;;1.57;;
15261;SDS011;7733;51.554;13.590;2023-03-24T14:31:09;3.73;;;1.70;;
15261;SDS011;7733;51.554;13.590;2023-03-24T14:36:38;1.50;;;1.10;;
15261;SDS011;7733;51.554;13.590;2023-03-24T14:44:55;1.50;;;1.40;;
15261;SDS011;7733;51.554;13.590;2023-03-24T14:48:19;2.53;;;2.30;;
15261;SDS011;7733;51.554;13.590;2023-03-24T14:50:52;1.63;;;1.57;;
15261;SDS011;7733;51.554;13.590;2023-03-24T14:53:22;3.57;;;3.40;;
15261;SDS011;7733;51.554;13.590;2023-03-24T14:55:48;3.80;;;3.60;;
15261;SDS011;7733;51.554;13.590;2023-03-24T14:58:21;2.33;;;2.23;;
15261;SDS011;7733;51.554;13.590;2023-03-24T15:01:00;1.60;;;1.50;;
15261;SDS011;7733;51.554;13.590;2023-03-24T15:06:30;2.30;;;2.20;;
15261;SDS011;7733;51.554;13.590;2023-03-24T15:08:58;2.27;;;2.03;;
15261;SDS011;7733;51.554;13.590;2023-03-24T15:11:32;1.90;;;1.80;;
15261;SDS011;7733;51.554;13.590;2023-03-24T15:14:02;3.93;;;3.63;;
15261;SDS011;7733;51.554;13.590;2023-03-24T15:16:31;2.77;;;2.60;;
15261;SDS011;7733;51.554;13.590;2023-03-24T15:19:05;4.23;;;2.70;;
15261;SDS011;7733;51.554;13.590;2023-03-24T15:21:47;3.30;;;3.10;;
15261;SDS011;7733;51.554;13.590;2023-03-24T15:24:27;2.03;;;1.93;;
15261;SDS011;7733;51.554;13.590;2023-03-24T15:29:36;2.77;;;2.30;;
15261;SDS011;7733;51.554;13.590;2023-03-24T15:32:04;2.10;;;2.00;;
15261;SDS011;7733;51.554;13.590;2023-03-24T15:34:39;2.90;;;2.70;;
15261;SDS011;7733;51.554;13.590;2023-03-24T15:37:20;2.87;;;1.80;;
15261;SDS011;7733;51.554;13.590;2023-03-24T15:40:03;1.73;;;1.60;;
15261;SDS011;7733;51.554;13.590;2023-03-24T15:42:30;1.60;;;1.50;;
15261;SDS011;7733;51.554;13.590;2023-03-24T15:45:05;1.57;;;1.47;;
15261;SDS011;7733;51.554;13.590;2023-03-24T15:47:43;2.53;;;1.80;;
15261;SDS011;7733;51.554;13.590;2023-03-24T15:50:26;1.90;;;1.80;;
15261;SDS011;7733;51.554;13.590;2023-03-24T15:55:42;4.30;;;2.10;;
15261;SDS011;7733;51.554;13.590;2023-03-24T15:58:22;2.37;;;1.90;;
15261;SDS011;7733;51.554;13.590;2023-03-24T16:00:57;1.60;;;1.50;;
15261;SDS011;7733;51.554;13.590;2023-03-24T16:03:26;2.63;;;1.90;;
15261;SDS011;7733;51.554;13.590;2023-03-24T16:05:55;1.80;;;1.73;;
15261;SDS011;7733;51.554;13.590;2023-03-24T16:08:25;1.57;;;1.47;;
15261;SDS011;7733;51.554;13.590;2023-03-24T16:11:09;1.93;;;1.70;;
15261;SDS011;7733;51.554;13.590;2023-03-24T16:13:38;1.67;;;1.57;;
15261;SDS011;7733;51.554;13.590;2023-03-24T16:18:41;2.40;;;2.30;;
15261;SDS011;7733;51.554;13.590;2023-03-24T16:21:13;2.33;;;2.10;;
15261;SDS011;7733;51.554;13.590;2023-03-24T16:23:51;1.87;;;1.77;;
15261;SDS011;7733;51.554;13.590;2023-03-24T16:26:29;3.30;;;2.23;;
15261;SDS011;7733;51.554;13.590;2023-03-24T16:29:39;1.80;;;1.70;;
15261;SDS011;7733;51.554;13.590;2023-03-24T16:31:48;2.83;;;1.83;;
15261;SDS011;7733;51.554;13.590;2023-03-24T16:34:17;1.93;;;1.80;;
15261;SDS011;7733;51.554;13.590;2023-03-24T16:36:46;2.13;;;1.67;;
15261;SDS011;7733;51.554;13.590;2023-03-24T16:39:18;2.13;;;1.93;;
15261;SDS011;7733;51.554;13.590;2023-03-24T16:41:50;2.57;;;2.30;;
15261;SDS011;7733;51.554;13.590;2023-03-24T16:44:16;2.23;;;2.10;;
15261;SDS011;7733;51.554;13.590;2023-03-24T16:46:44;2.20;;;2.10;;
15261;SDS011;7733;51.554;13.590;2023-03-24T16:49:12;2.87;;;2.67;;
15261;SDS011;7733;51.554;13.590;2023-03-24T16:51:41;2.30;;;2.20;;
15261;SDS011;7733;51.554;13.590;2023-03-24T16:54:07;2.00;;;1.90;;
15261;SDS011;7733;51.554;13.590;2023-03-24T16:56:33;2.10;;;2.00;;
15261;SDS011;7733;51.554;13.590;2023-03-24T16:59:01;2.87;;;1.93;;
15261;SDS011;7733;51.554;13.590;2023-03-24T17:01:46;2.07;;;1.90;;
15261;SDS011;7733;51.554;13.590;2023-03-24T17:04:16;1.97;;;1.87;;
15261;SDS011;7733;51.554;13.590;2023-03-24T17:06:47;2.63;;;2.43;;
15261;SDS011;7733;51.554;13.590;2023-03-24T17:09:17;1.73;;;1.73;;
15261;SDS011;7733;51.554;13.590;2023-03-24T17:11:46;3.10;;;1.97;;
15261;SDS011;7733;51.554;13.590;2023-03-24T17:14:16;2.70;;;2.50;;
15261;SDS011;7733;51.554;13.590;2023-03-24T17:16:43;3.13;;;2.93;;
15261;SDS011;7733;51.554;13.590;2023-03-24T17:19:16;3.43;;;3.20;;
15261;SDS011;7733;51.554;13.590;2023-03-24T17:24:24;6.13;;;4.37;;
15261;SDS011;7733;51.554;13.590;2023-03-24T17:26:50;2.33;;;2.17;;
15261;SDS011;7733;51.554;13.590;2023-03-24T17:29:16;2.10;;;2.00;;
15261;SDS011;7733;51.554;13.590;2023-03-24T17:31:42;2.07;;;1.97;;
15261;SDS011;7733;51.554;13.590;2023-03-24T17:34:10;2.40;;;2.30;;
15261;SDS011;7733;51.554;13.590;2023-03-24T17:36:37;2.40;;;2.30;;
15261;SDS011;7733;51.554;13.590;2023-03-24T17:39:03;2.57;;;2.37;;
15261;SDS011;7733;51.554;13.590;2023-03-24T17:41:29;3.20;;;2.90;;
15261;SDS011;7733;51.554;13.590;2023-03-24T17:43:55;1.93;;;1.83;;
15261;SDS011;7733;51.554;13.590;2023-03-24T17:46:21;5.63;;;1.93;;
15261;SDS011;7733;51.554;13.590;2023-03-24T17:48:46;3.13;;;2.93;;
15261;SDS011;7733;51.554;13.590;2023-03-24T17:51:12;4.83;;;4.43;;
15261;SDS011;7733;51.554;13.590;2023-03-24T17:53:38;3.63;;;3.33;;
15261;SDS011;7733;51.554;13.590;2023-03-24T17:56:04;4.63;;;4.23;;
15261;SDS011;7733;51.554;13.590;2023-03-24T17:58:31;3.33;;;3.10;;
15261;SDS011;7733;51.554;13.590;2023-03-24T18:01:03;3.43;;;3.13;;
15261;SDS011;7733;51.554;13.590;2023-03-24T18:03:35;2.37;;;2.17;;
15261;SDS011;7733;51.554;13.590;2023-03-24T18:06:08;3.10;;;2.83;;
15261;SDS011;7733;51.554;13.590;2023-03-24T18:08:37;4.53;;;4.20;;
15261;SDS011;7733;51.554;13.590;2023-03-24T18:11:13;4.30;;;4.00;;
15261;SDS011;7733;51.554;13.590;2023-03-24T18:13:39;7.80;;;5.13;;
15261;SDS011;7733;51.554;13.590;2023-03-24T18:16:06;4.70;;;4.40;;
15261;SDS011;7733;51.554;13.590;2023-03-24T18:18:34;3.30;;;3.00;;
15261;SDS011;7733;51.554;13.590;2023-03-24T18:21:02;14.53;;;13.10;;
15261;SDS011;7733;51.554;13.590;2023-03-24T18:23:31;13.30;;;12.00;;
15261;SDS011;7733;51.554;13.590;2023-03-24T18:26:01;5.67;;;5.17;;
15261;SDS011;7733;51.554;13.590;2023-03-24T18:28:32;5.33;;;4.93;;
15261;SDS011;7733;51.554;13.590;2023-03-24T18:30:59;3.50;;;3.20;;
15261;SDS011;7733;51.554;13.590;2023-03-24T18:33:25;2.30;;;2.20;;
15261;SDS011;7733;51.554;13.590;2023-03-24T18:35:55;1.87;;;1.77;;
15261;SDS011;7733;51.554;13.590;2023-03-24T18:38:22;1.73;;;1.70;;
15261;SDS011;7733;51.554;13.590;2023-03-24T18:41:02;3.27;;;2.03;;
15261;SDS011;7733;51.554;13.590;2023-03-24T18:43:40;2.97;;;2.40;;
15261;SDS011;7733;51.554;13.590;2023-03-24T18:46:07;1.90;;;1.80;;
15261;SDS011;7733;51.554;13.590;2023-03-24T18:48:35;3.00;;;2.40;;
15261;SDS011;7733;51.554;13.590;2023-03-24T18:51:03;1.80;;;1.70;;